createdAt,value
2022-12-29T00:01:14.725Z,3.00
2022-12-29T00:03:43.399Z,2.90
2022-12-29T00:06:13.551Z,2.80
2022-12-29T00:08:42.084Z,2.80
2022-12-29T00:11:11.835Z,2.70
2022-12-29T00:13:54.514Z,2.60
2022-12-29T00:16:23.151Z,2.60
2022-12-29T00:18:51.849Z,2.50
2022-12-29T00:21:40.929Z,2.50
2022-12-29T00:24:31.189Z,2.40
2022-12-29T00:27:27.459Z,2.40
2022-12-29T00:30:13.289Z,2.40
2022-12-29T00:32:59.723Z,2.30
2022-12-29T00:35:31.627Z,2.30
2022-12-29T00:38:22.059Z,2.30
2022-12-29T00:41:07.890Z,2.20
2022-12-29T00:43:54.985Z,2.20
2022-12-29T00:46:23.803Z,2.20
2022-12-29T00:49:10.152Z,2.10
2022-12-29T00:51:38.938Z,2.20
2022-12-29T00:54:09.413Z,2.10
2022-12-29T00:56:38.100Z,2.20
2022-12-29T00:59:07.932Z,2.30
2022-12-29T01:01:37.374Z,2.30
2022-12-29T01:04:06.358Z,2.40
2022-12-29T01:06:35.202Z,2.50
2022-12-29T01:09:21.163Z,2.50
2022-12-29T01:11:51.483Z,2.50
2022-12-29T01:14:20.944Z,2.40
2022-12-29T01:16:49.853Z,2.40
2022-12-29T01:19:19.380Z,2.40
2022-12-29T01:21:48.127Z,2.30
2022-12-29T01:24:17.374Z,2.20
2022-12-29T01:26:46.788Z,2.20
2022-12-29T01:29:16.693Z,2.20
2022-12-29T01:31:45.627Z,2.10
2022-12-29T01:34:14.395Z,2.10
2022-12-29T01:36:42.923Z,2.00
2022-12-29T01:39:11.408Z,2.00
2022-12-29T01:41:39.968Z,2.00
2022-12-29T01:44:43.909Z,2.10
2022-12-29T01:47:13.830Z,2.10
2022-12-29T01:49:42.887Z,2.10
2022-12-29T01:52:11.503Z,2.10
2022-12-29T01:54:43.494Z,2.10
2022-12-29T01:57:15.077Z,2.00
2022-12-29T01:59:45.841Z,2.00
2022-12-29T02:02:15.824Z,2.00
2022-12-29T02:04:46.048Z,2.00
2022-12-29T02:07:19.303Z,2.00
2022-12-29T02:09:49.659Z,1.90
2022-12-29T02:12:18.720Z,1.90
2022-12-29T02:14:47.738Z,1.80
2022-12-29T02:17:30.241Z,1.70
2022-12-29T02:20:29.601Z,1.70
2022-12-29T02:23:11.975Z,1.70
2022-12-29T02:26:02.151Z,2.10
2022-12-29T02:28:57.001Z,2.40
2022-12-29T02:31:30.077Z,2.40
2022-12-29T02:34:06.086Z,2.20
2022-12-29T02:36:41.504Z,2.10
2022-12-29T02:39:17.483Z,2.00
2022-12-29T02:41:51.840Z,2.00
2022-12-29T02:44:27.296Z,2.00
2022-12-29T02:47:00.940Z,2.00
2022-12-29T02:49:35.759Z,1.90
2022-12-29T02:52:07.162Z,1.90
2022-12-29T02:54:44.106Z,1.90
2022-12-29T02:57:15.377Z,1.90
2022-12-29T02:59:44.412Z,1.90
2022-12-29T03:02:33.154Z,1.90
2022-12-29T03:05:21.830Z,1.90
2022-12-29T03:07:57.451Z,1.90
2022-12-29T03:10:35.669Z,1.90
2022-12-29T03:13:24.248Z,1.90
2022-12-29T03:16:08.149Z,1.80
2022-12-29T03:18:49.596Z,1.80
2022-12-29T03:21:21.944Z,1.80
2022-12-29T03:23:51.154Z,1.80
2022-12-29T03:26:21.553Z,1.80
2022-12-29T03:28:54.380Z,1.80
2022-12-29T03:31:24.451Z,1.80
2022-12-29T03:33:55.309Z,1.70
2022-12-29T03:36:28.985Z,1.70
2022-12-29T03:39:01.616Z,1.70
2022-12-29T03:41:34.261Z,1.60
2022-12-29T03:44:03.018Z,1.60
2022-12-29T03:46:31.684Z,1.60
2022-12-29T03:49:01.620Z,1.60
2022-12-29T03:51:30.114Z,1.60
2022-12-29T03:53:58.646Z,1.60
2022-12-29T03:56:27.165Z,1.60
2022-12-29T03:58:55.814Z,1.60
2022-12-29T04:01:24.458Z,1.60
2022-12-29T04:03:53.150Z,1.60
2022-12-29T04:06:23.234Z,1.50
2022-12-29T04:08:51.819Z,1.50
2022-12-29T04:11:20.416Z,1.70
2022-12-29T04:13:48.948Z,1.80
2022-12-29T04:16:17.705Z,1.80
2022-12-29T04:18:46.895Z,1.80
2022-12-29T04:21:15.475Z,1.90
2022-12-29T04:23:45.352Z,1.80
2022-12-29T04:26:14.030Z,1.90
2022-12-29T04:28:43.173Z,1.90
2022-12-29T04:31:12.142Z,1.90
2022-12-29T04:33:40.750Z,1.90
2022-12-29T04:36:09.297Z,1.90
2022-12-29T04:38:37.830Z,1.90
2022-12-29T04:41:07.980Z,1.90
2022-12-29T04:43:36.597Z,1.80
2022-12-29T04:46:05.081Z,1.80
2022-12-29T04:48:33.657Z,1.70
2022-12-29T04:51:03.193Z,1.70
2022-12-29T04:53:31.734Z,1.70
2022-12-29T04:56:00.257Z,1.60
2022-12-29T04:58:30.203Z,1.60
2022-12-29T05:00:58.756Z,1.60
2022-12-29T05:03:27.426Z,1.60
2022-12-29T05:05:56.592Z,1.60
2022-12-29T05:08:28.298Z,1.50
2022-12-29T05:10:57.260Z,1.50
2022-12-29T05:13:25.832Z,1.50
2022-12-29T05:15:56.059Z,1.50
2022-12-29T05:18:24.647Z,1.50
2022-12-29T05:20:53.388Z,1.40
2022-12-29T05:23:21.936Z,1.50
2022-12-29T05:25:50.433Z,1.50
2022-12-29T05:28:18.958Z,1.50
2022-12-29T05:30:50.887Z,1.60
2022-12-29T05:33:21.129Z,1.70
2022-12-29T05:35:49.857Z,1.70
2022-12-29T05:38:18.566Z,1.70
2022-12-29T05:40:47.229Z,1.70
2022-12-29T05:43:15.933Z,1.70
2022-12-29T05:45:44.454Z,1.70
2022-12-29T05:48:12.941Z,1.60
2022-12-29T05:50:42.836Z,1.60
2022-12-29T05:53:11.613Z,1.60
2022-12-29T05:55:45.109Z,1.50
2022-12-29T05:58:15.452Z,1.60
2022-12-29T06:00:43.969Z,1.60
2022-12-29T06:03:12.852Z,1.70
2022-12-29T06:05:42.840Z,1.80
2022-12-29T06:08:11.379Z,1.90
2022-12-29T06:10:40.013Z,2.00
2022-12-29T06:13:08.606Z,2.10
2022-12-29T06:15:37.323Z,2.10
2022-12-29T06:18:05.916Z,2.10
2022-12-29T06:20:34.414Z,2.10
2022-12-29T06:23:04.847Z,2.10
2022-12-29T06:25:34.585Z,2.10
2022-12-29T06:28:03.149Z,2.00
2022-12-29T06:30:31.669Z,2.00
2022-12-29T06:33:00.759Z,2.00
2022-12-29T06:35:29.544Z,2.00
2022-12-29T06:37:58.448Z,2.00
2022-12-29T06:40:28.387Z,1.90
2022-12-29T06:42:57.020Z,1.80
2022-12-29T06:45:25.747Z,1.70
2022-12-29T06:47:54.253Z,1.60
2022-12-29T06:50:22.787Z,1.40
2022-12-29T06:52:51.399Z,1.30
2022-12-29T06:55:19.906Z,1.30
2022-12-29T06:57:49.820Z,1.00
2022-12-29T07:00:22.707Z,0.60
2022-12-29T07:02:51.841Z,0.50
2022-12-29T07:05:20.693Z,0.30
2022-12-29T07:07:49.207Z,0.20
2022-12-29T07:10:17.801Z,0.10
2022-12-29T07:12:46.307Z,0.00
2022-12-29T07:15:16.329Z,-0.20
2022-12-29T07:17:45.281Z,-0.20
2022-12-29T07:20:13.885Z,-0.10
2022-12-29T07:22:42.383Z,-0.20
2022-12-29T07:25:11.291Z,-0.20
2022-12-29T07:27:39.883Z,-0.20
2022-12-29T07:30:09.406Z,-0.20
2022-12-29T07:32:39.433Z,-0.20
2022-12-29T07:35:08.847Z,-0.20
2022-12-29T07:37:37.387Z,-0.20
2022-12-29T07:40:07.144Z,-0.20
2022-12-29T07:42:35.795Z,-0.20
2022-12-29T07:45:04.690Z,-0.20
2022-12-29T07:47:33.180Z,-0.20
2022-12-29T07:50:03.995Z,-0.10
2022-12-29T07:52:32.568Z,0.00
2022-12-29T07:55:01.086Z,0.00
2022-12-29T07:57:32.056Z,0.00
2022-12-29T08:00:01.090Z,0.00
2022-12-29T08:02:30.750Z,0.10
2022-12-29T08:04:59.373Z,0.20
2022-12-29T08:07:29.274Z,0.30
2022-12-29T08:09:58.263Z,0.40
2022-12-29T08:12:26.942Z,0.50
2022-12-29T08:14:55.471Z,0.60
2022-12-29T08:17:23.988Z,0.70
2022-12-29T08:19:52.518Z,0.80
2022-12-29T08:22:21.067Z,0.90
2022-12-29T08:24:51.052Z,1.00
2022-12-29T08:27:21.181Z,1.10
2022-12-29T08:29:50.049Z,1.20
2022-12-29T08:32:18.802Z,1.40
2022-12-29T08:34:47.641Z,1.60
2022-12-29T08:37:16.260Z,1.80
2022-12-29T08:39:44.866Z,2.00
2022-12-29T08:42:14.775Z,2.10
2022-12-29T08:44:43.657Z,2.20
2022-12-29T08:47:12.851Z,2.30
2022-12-29T08:49:41.440Z,2.40
2022-12-29T08:52:10.413Z,2.50
2022-12-29T08:54:38.951Z,2.60
2022-12-29T08:57:07.460Z,2.70
2022-12-29T08:59:37.376Z,2.80
2022-12-29T09:02:06.088Z,2.90
2022-12-29T09:04:34.977Z,3.00
2022-12-29T09:07:03.679Z,3.10
2022-12-29T09:09:32.238Z,3.10
2022-12-29T09:12:00.718Z,3.20
2022-12-29T09:14:29.278Z,3.30
2022-12-29T09:17:16.745Z,3.40
2022-12-29T09:19:45.273Z,3.50
2022-12-29T09:22:13.776Z,3.60
2022-12-29T09:24:42.393Z,3.80
2022-12-29T09:27:10.980Z,3.90
2022-12-29T09:29:39.572Z,3.90
2022-12-29T09:32:13.881Z,4.00
2022-12-29T09:34:45.697Z,4.20
2022-12-29T09:37:14.244Z,4.30
2022-12-29T09:39:42.803Z,4.50
2022-12-29T09:42:16.622Z,4.70
2022-12-29T09:44:54.408Z,4.80
2022-12-29T09:47:25.527Z,4.90
2022-12-29T09:49:57.059Z,5.00
2022-12-29T09:52:30.603Z,5.20
2022-12-29T09:55:05.342Z,5.30
2022-12-29T09:57:41.993Z,5.50
2022-12-29T10:00:16.850Z,5.60
2022-12-29T10:02:50.718Z,5.80
2022-12-29T10:05:32.186Z,5.90
2022-12-29T10:08:19.992Z,6.00
2022-12-29T10:10:55.454Z,6.10
2022-12-29T10:13:32.308Z,6.20
2022-12-29T10:16:06.903Z,6.30
2022-12-29T10:18:51.776Z,6.40
2022-12-29T10:21:28.224Z,6.50
2022-12-29T10:23:58.048Z,6.60
2022-12-29T10:26:30.097Z,6.70
2022-12-29T10:29:00.760Z,6.80
2022-12-29T10:31:34.859Z,6.90
2022-12-29T10:34:08.426Z,7.10
2022-12-29T10:36:40.216Z,7.20
2022-12-29T10:39:15.795Z,7.40
2022-12-29T10:41:49.339Z,7.60
2022-12-29T10:44:19.428Z,7.70
2022-12-29T10:46:54.430Z,8.00
2022-12-29T10:49:24.345Z,8.30
2022-12-29T10:51:53.532Z,8.60
2022-12-29T10:54:25.323Z,8.80
2022-12-29T10:56:55.806Z,9.00
2022-12-29T10:59:26.259Z,9.30
2022-12-29T11:02:01.529Z,9.50
2022-12-29T11:04:45.702Z,9.80
2022-12-29T11:07:16.424Z,10.30
2022-12-29T11:09:46.741Z,10.80
2022-12-29T11:12:24.801Z,11.30
2022-12-29T11:15:13.028Z,11.60
2022-12-29T11:17:48.988Z,11.70
2022-12-29T11:20:34.626Z,12.00
2022-12-29T11:23:03.976Z,12.20
2022-12-29T11:25:32.968Z,12.40
2022-12-29T11:28:05.241Z,12.50
2022-12-29T11:30:34.653Z,12.40
2022-12-29T11:33:05.953Z,12.40
2022-12-29T11:35:38.671Z,12.20
2022-12-29T11:38:07.794Z,12.10
2022-12-29T11:40:40.729Z,12.00
2022-12-29T11:43:18.136Z,11.80
2022-12-29T11:45:50.238Z,11.70
2022-12-29T11:48:20.697Z,11.70
2022-12-29T11:50:55.186Z,11.70
2022-12-29T11:53:26.410Z,11.60
2022-12-29T11:55:57.047Z,11.60
2022-12-29T11:58:33.487Z,11.60
2022-12-29T12:01:04.907Z,11.60
2022-12-29T12:03:35.178Z,11.60
2022-12-29T12:06:06.285Z,11.60
2022-12-29T12:08:38.284Z,11.60
2022-12-29T12:11:10.873Z,11.60
2022-12-29T12:13:44.028Z,11.60
2022-12-29T12:16:16.601Z,11.60
2022-12-29T12:18:49.143Z,11.60
2022-12-29T12:21:24.520Z,11.70
2022-12-29T12:24:19.097Z,11.60
2022-12-29T12:26:58.247Z,11.60
2022-12-29T12:29:30.941Z,11.70
2022-12-29T12:32:01.942Z,11.60
2022-12-29T12:34:34.200Z,11.60
2022-12-29T12:37:16.738Z,11.70
2022-12-29T12:39:52.283Z,11.70
2022-12-29T12:42:30.223Z,11.70
2022-12-29T12:45:06.077Z,11.70
2022-12-29T12:47:55.338Z,11.60
2022-12-29T12:50:41.709Z,11.60
2022-12-29T12:53:36.186Z,11.60
2022-12-29T12:56:30.029Z,11.50
2022-12-29T12:59:08.863Z,11.40
2022-12-29T13:01:47.497Z,11.50
2022-12-29T13:04:39.596Z,11.40
2022-12-29T13:07:18.358Z,11.30
2022-12-29T13:09:57.687Z,11.30
2022-12-29T13:12:37.605Z,11.30
2022-12-29T13:15:14.819Z,11.30
2022-12-29T13:17:48.701Z,11.20
2022-12-29T13:20:27.440Z,11.20
2022-12-29T13:23:02.485Z,11.10
2022-12-29T13:25:37.800Z,11.10
2022-12-29T13:28:12.899Z,11.20
2022-12-29T13:30:53.110Z,11.10
2022-12-29T13:33:26.810Z,11.20
2022-12-29T13:36:01.854Z,11.10
2022-12-29T13:38:35.495Z,11.10
2022-12-29T13:41:09.008Z,11.00
2022-12-29T13:43:42.145Z,11.00
2022-12-29T13:46:14.908Z,10.90
2022-12-29T13:49:01.158Z,10.90
2022-12-29T13:51:31.072Z,10.80
2022-12-29T13:54:09.723Z,10.80
2022-12-29T13:56:42.163Z,10.80
2022-12-29T13:59:19.604Z,10.80
2022-12-29T14:01:55.287Z,10.70
2022-12-29T14:04:26.112Z,10.70
2022-12-29T14:07:03.284Z,10.60
2022-12-29T14:09:57.780Z,10.60
2022-12-29T14:12:46.386Z,10.60
2022-12-29T14:15:25.451Z,10.60
2022-12-29T14:18:07.804Z,10.60
2022-12-29T14:20:37.411Z,10.50
2022-12-29T14:23:19.713Z,10.50
2022-12-29T14:26:18.459Z,10.50
2022-12-29T14:28:49.822Z,10.50
2022-12-29T14:31:41.554Z,10.50
2022-12-29T14:34:34.572Z,10.40
2022-12-29T14:37:04.654Z,10.40
2022-12-29T14:39:39.758Z,10.40
2022-12-29T14:42:28.799Z,10.30
2022-12-29T14:45:11.264Z,10.30
2022-12-29T14:47:43.788Z,10.30
2022-12-29T14:50:17.787Z,10.30
2022-12-29T14:53:00.116Z,10.20
2022-12-29T14:55:42.195Z,10.20
2022-12-29T14:58:16.950Z,10.20
2022-12-29T15:00:50.672Z,10.10
2022-12-29T15:03:28.377Z,9.90
2022-12-29T15:06:03.572Z,9.70
2022-12-29T15:08:39.461Z,9.50
2022-12-29T15:11:19.307Z,9.30
2022-12-29T15:13:49.712Z,9.10
2022-12-29T15:16:26.638Z,8.70
2022-12-29T15:18:55.539Z,8.60
2022-12-29T15:21:27.137Z,8.50
2022-12-29T15:23:56.143Z,8.40
2022-12-29T15:26:25.244Z,8.20
2022-12-29T15:28:55.609Z,8.00
2022-12-29T15:31:30.600Z,7.80
2022-12-29T15:34:10.464Z,7.70
2022-12-29T15:37:00.880Z,7.60
2022-12-29T15:39:43.128Z,7.30
2022-12-29T15:42:39.631Z,7.20
2022-12-29T15:45:12.957Z,6.90
2022-12-29T15:47:45.750Z,6.90
2022-12-29T15:50:25.263Z,6.90
2022-12-29T15:52:54.127Z,6.70
2022-12-29T15:55:28.341Z,6.50
2022-12-29T15:58:01.984Z,6.40
2022-12-29T16:00:36.172Z,6.50
2022-12-29T16:03:08.022Z,6.50
2022-12-29T16:05:38.148Z,6.50
2022-12-29T16:08:24.933Z,6.50
2022-12-29T16:10:54.830Z,6.40
2022-12-29T16:13:27.750Z,6.40
2022-12-29T16:16:00.380Z,6.30
2022-12-29T16:18:31.760Z,6.30
2022-12-29T16:21:06.072Z,6.30
2022-12-29T16:23:35.525Z,6.30
2022-12-29T16:26:05.078Z,6.30
2022-12-29T16:28:48.769Z,6.20
2022-12-29T16:31:23.255Z,6.20
2022-12-29T16:33:54.527Z,6.10
2022-12-29T16:36:36.043Z,6.10
2022-12-29T16:39:40.377Z,6.10
2022-12-29T16:42:38.112Z,6.00
2022-12-29T16:46:08.198Z,6.00
2022-12-29T16:48:38.787Z,5.90
2022-12-29T16:51:16.140Z,5.80
2022-12-29T16:53:52.168Z,5.70
2022-12-29T16:56:24.513Z,5.60
2022-12-29T16:58:57.051Z,5.50
2022-12-29T17:01:26.034Z,5.40
2022-12-29T17:03:56.214Z,5.40
2022-12-29T17:06:29.123Z,5.20
2022-12-29T17:08:58.391Z,5.20
2022-12-29T17:11:50.188Z,5.10
2022-12-29T17:14:42.092Z,5.10
2022-12-29T17:17:22.473Z,5.10
2022-12-29T17:19:53.943Z,5.10
2022-12-29T17:22:26.890Z,5.00
2022-12-29T17:24:57.383Z,5.00
2022-12-29T17:27:28.736Z,5.00
2022-12-29T17:30:00.151Z,4.90
2022-12-29T17:32:28.734Z,4.90
2022-12-29T17:35:00.261Z,4.90
2022-12-29T17:37:34.810Z,4.90
2022-12-29T17:40:04.826Z,4.80
2022-12-29T17:42:35.737Z,4.80
2022-12-29T17:45:12.784Z,4.70
2022-12-29T17:47:41.287Z,4.60
2022-12-29T17:50:13.526Z,4.50
2022-12-29T17:52:44.493Z,4.50
2022-12-29T17:55:18.315Z,4.40
2022-12-29T17:57:47.247Z,4.40
2022-12-29T18:00:22.840Z,4.40
2022-12-29T18:02:51.855Z,4.30
2022-12-29T18:05:25.139Z,4.30
2022-12-29T18:07:56.295Z,4.30
2022-12-29T18:10:26.972Z,4.30
2022-12-29T18:12:57.370Z,4.30
2022-12-29T18:15:28.278Z,4.20
2022-12-29T18:18:01.783Z,4.20
2022-12-29T18:20:30.915Z,4.20
2022-12-29T18:23:01.229Z,4.20
2022-12-29T18:25:42.814Z,4.20
2022-12-29T18:28:12.297Z,4.20
2022-12-29T18:30:41.704Z,4.20
2022-12-29T18:33:19.263Z,4.20
2022-12-29T18:35:54.068Z,4.20
2022-12-29T18:38:25.332Z,4.20
2022-12-29T18:40:54.701Z,4.20
2022-12-29T18:43:24.105Z,4.10
2022-12-29T18:45:52.842Z,4.10
2022-12-29T18:48:26.326Z,4.10
2022-12-29T18:50:57.729Z,4.10
2022-12-29T18:53:27.807Z,4.20
2022-12-29T18:55:57.597Z,4.20
2022-12-29T18:58:34.215Z,4.10
2022-12-29T19:01:03.377Z,4.10
2022-12-29T19:03:32.685Z,4.00
2022-12-29T19:06:01.726Z,4.00
2022-12-29T19:08:36.809Z,3.90
2022-12-29T19:11:05.492Z,3.90
2022-12-29T19:13:34.430Z,3.80
2022-12-29T19:16:04.603Z,3.80
2022-12-29T19:19:00.972Z,3.80
2022-12-29T19:21:22.293Z,3.80
2022-12-29T19:23:58.911Z,3.80
2022-12-29T19:26:34.448Z,3.80
2022-12-29T19:29:04.385Z,3.80
2022-12-29T19:31:33.297Z,3.80
2022-12-29T19:34:03.001Z,3.80
2022-12-29T19:36:31.836Z,3.80
2022-12-29T19:39:01.793Z,3.80
2022-12-29T19:41:30.452Z,3.80
2022-12-29T19:43:59.039Z,3.70
2022-12-29T19:46:27.868Z,3.70
2022-12-29T19:48:58.950Z,3.70
2022-12-29T19:51:28.213Z,3.70
2022-12-29T19:53:58.574Z,3.70
2022-12-29T19:56:29.328Z,3.70
2022-12-29T19:58:58.672Z,3.70
2022-12-29T20:01:27.830Z,3.70
2022-12-29T20:03:56.868Z,3.70
2022-12-29T20:06:25.382Z,3.70
2022-12-29T20:08:55.568Z,3.60
2022-12-29T20:11:24.412Z,3.60
2022-12-29T20:13:54.727Z,3.60
2022-12-29T20:16:25.120Z,3.60
2022-12-29T20:18:56.029Z,3.60
2022-12-29T20:21:26.357Z,3.60
2022-12-29T20:23:56.395Z,3.60
2022-12-29T20:26:26.931Z,3.60
2022-12-29T20:28:57.848Z,3.60
2022-12-29T20:31:28.614Z,3.50
2022-12-29T20:33:57.329Z,3.50
2022-12-29T20:36:28.457Z,3.40
2022-12-29T20:38:58.271Z,3.40
2022-12-29T20:41:27.246Z,3.40
2022-12-29T20:43:57.208Z,3.40
2022-12-29T20:46:32.882Z,3.40
2022-12-29T20:49:03.889Z,3.50
2022-12-29T20:51:59.320Z,3.50
2022-12-29T20:54:21.205Z,3.50
2022-12-29T20:56:49.943Z,3.50
2022-12-29T20:59:28.488Z,3.50
2022-12-29T21:01:58.407Z,3.40
2022-12-29T21:04:27.375Z,3.40
2022-12-29T21:06:56.173Z,3.40
2022-12-29T21:09:24.718Z,3.50
2022-12-29T21:11:53.362Z,3.60
2022-12-29T21:14:23.236Z,3.50
2022-12-29T21:16:51.790Z,3.40
2022-12-29T21:19:20.455Z,3.40
2022-12-29T21:21:49.612Z,3.40
2022-12-29T21:24:19.789Z,3.30
2022-12-29T21:26:48.727Z,3.30
2022-12-29T21:29:17.358Z,3.30
2022-12-29T21:31:47.945Z,3.30
2022-12-29T21:34:16.467Z,3.30
2022-12-29T21:36:44.967Z,3.30
2022-12-29T21:39:16.498Z,3.30
2022-12-29T21:41:45.053Z,3.40
2022-12-29T21:44:30.929Z,3.40
2022-12-29T21:47:01.113Z,3.40
2022-12-29T21:49:29.665Z,3.40
2022-12-29T21:51:58.167Z,3.40
2022-12-29T21:54:46.270Z,3.40
2022-12-29T21:57:36.834Z,3.40
2022-12-29T22:00:24.142Z,3.40
2022-12-29T22:03:20.137Z,3.40
2022-12-29T22:06:08.957Z,3.40
2022-12-29T22:08:55.097Z,3.40
2022-12-29T22:11:41.677Z,3.40
2022-12-29T22:14:10.287Z,4.00
2022-12-29T22:16:38.981Z,5.20
2022-12-29T22:19:10.561Z,6.20
2022-12-29T22:21:39.081Z,6.90
2022-12-29T22:24:08.711Z,7.50
2022-12-29T22:26:37.329Z,7.90
2022-12-29T22:29:05.900Z,8.10
2022-12-29T22:31:34.494Z,8.00
2022-12-29T22:34:05.492Z,7.80
2022-12-29T22:36:35.713Z,7.60
2022-12-29T22:39:04.281Z,7.50
2022-12-29T22:41:32.916Z,7.40
2022-12-29T22:44:01.435Z,7.50
2022-12-29T22:46:30.025Z,7.50
2022-12-29T22:48:58.924Z,7.50
2022-12-29T22:51:27.581Z,7.60
2022-12-29T22:53:58.089Z,7.70
2022-12-29T22:56:26.687Z,7.70
2022-12-29T22:58:55.223Z,8.00
2022-12-29T23:01:23.918Z,8.00
2022-12-29T23:03:52.758Z,7.90
2022-12-29T23:06:21.274Z,7.80
2022-12-29T23:08:49.906Z,7.60
2022-12-29T23:11:19.853Z,7.50
2022-12-29T23:13:48.489Z,7.40
2022-12-29T23:16:17.612Z,7.60
2022-12-29T23:18:47.361Z,7.80
2022-12-29T23:21:16.622Z,8.00
2022-12-29T23:23:56.120Z,8.10
2022-12-29T23:26:32.426Z,8.10
2022-12-29T23:29:02.127Z,8.00
2022-12-29T23:31:31.965Z,8.00
2022-12-29T23:34:01.309Z,8.00
2022-12-29T23:36:30.289Z,8.10
2022-12-29T23:38:58.920Z,8.20
2022-12-29T23:41:29.272Z,8.30
2022-12-29T23:43:57.945Z,8.30
2022-12-29T23:46:27.934Z,8.20
2022-12-29T23:48:57.169Z,8.10
2022-12-29T23:51:26.312Z,8.00
2022-12-29T23:53:54.917Z,7.90
2022-12-29T23:56:24.339Z,7.70
2022-12-29T23:58:54.389Z,7.70
